createdAt,value
2018-11-07T00:00:20.288Z,1.40
2018-11-07T00:02:49.715Z,1.40
2018-11-07T00:05:20.116Z,1.40
2018-11-07T00:07:49.864Z,1.30
2018-11-07T00:10:19.116Z,1.20
2018-11-07T00:12:48.408Z,1.10
2018-11-07T00:15:17.956Z,1.00
2018-11-07T00:17:47.080Z,1.00
2018-11-07T00:20:16.526Z,1.10
2018-11-07T00:22:46.048Z,1.00
2018-11-07T00:25:15.467Z,0.80
2018-11-07T00:27:44.876Z,0.90
2018-11-07T00:30:14.063Z,1.00
2018-11-07T00:32:43.174Z,1.00
2018-11-07T00:35:12.914Z,1.00
2018-11-07T00:37:42.781Z,0.80
2018-11-07T00:40:12.701Z,0.90
2018-11-07T00:42:42.144Z,1.00
2018-11-07T00:45:12.686Z,0.90
2018-11-07T00:47:42.628Z,0.90
2018-11-07T00:50:15.500Z,1.00
2018-11-07T00:52:45.195Z,0.90
2018-11-07T00:55:15.181Z,0.90
2018-11-07T00:57:44.514Z,0.80
2018-11-07T01:00:16.207Z,0.90
2018-11-07T01:02:45.955Z,1.00
2018-11-07T01:05:15.197Z,0.80
2018-11-07T01:07:45.350Z,0.90
2018-11-07T01:10:14.391Z,0.90
2018-11-07T01:12:43.735Z,1.00
2018-11-07T01:15:13.651Z,1.00
2018-11-07T01:17:42.896Z,0.80
2018-11-07T01:20:13.474Z,0.60
2018-11-07T01:22:42.552Z,0.70
2018-11-07T01:25:11.774Z,0.80
2018-11-07T01:27:41.318Z,0.80
2018-11-07T01:30:12.276Z,0.60
2018-11-07T01:32:41.570Z,0.70
2018-11-07T01:35:10.661Z,0.80
2018-11-07T01:37:39.796Z,0.80
2018-11-07T01:40:10.337Z,0.70
2018-11-07T01:42:39.481Z,0.70
2018-11-07T01:45:09.642Z,0.80
2018-11-07T01:47:38.976Z,0.80
2018-11-07T01:50:10.081Z,0.80
2018-11-07T01:52:39.612Z,0.70
2018-11-07T01:55:09.584Z,0.60
2018-11-07T01:57:38.877Z,0.70
2018-11-07T02:00:10.721Z,0.60
2018-11-07T02:02:40.720Z,0.70
2018-11-07T02:05:10.062Z,0.80
2018-11-07T02:07:39.140Z,0.70
2018-11-07T02:10:09.421Z,0.60
2018-11-07T02:12:38.877Z,0.60
2018-11-07T02:15:08.645Z,0.60
2018-11-07T02:17:38.019Z,0.50
2018-11-07T02:20:08.253Z,0.60
2018-11-07T02:22:37.656Z,0.70
2018-11-07T02:25:07.232Z,0.60
2018-11-07T02:27:36.372Z,0.60
2018-11-07T02:30:07.103Z,0.50
2018-11-07T02:32:36.555Z,0.50
2018-11-07T02:35:05.786Z,0.40
2018-11-07T02:37:34.962Z,0.50
2018-11-07T02:40:04.141Z,0.50
2018-11-07T02:42:33.554Z,0.50
2018-11-07T02:45:02.822Z,0.40
2018-11-07T02:47:32.464Z,0.40
2018-11-07T02:50:01.860Z,0.40
2018-11-07T02:52:31.576Z,0.40
2018-11-07T02:55:00.929Z,0.50
2018-11-07T02:57:30.140Z,0.50
2018-11-07T02:59:59.475Z,0.50
2018-11-07T03:02:28.802Z,0.40
2018-11-07T03:04:58.557Z,0.40
2018-11-07T03:07:27.652Z,0.50
2018-11-07T03:09:57.061Z,0.50
2018-11-07T03:12:26.641Z,0.50
2018-11-07T03:14:55.856Z,0.60
2018-11-07T03:17:25.384Z,0.60
2018-11-07T03:19:54.930Z,0.40
2018-11-07T03:22:24.321Z,0.40
2018-11-07T03:24:53.889Z,0.50
2018-11-07T03:27:23.036Z,0.40
2018-11-07T03:29:52.573Z,0.20
2018-11-07T03:32:21.773Z,0.30
2018-11-07T03:34:50.938Z,0.40
2018-11-07T03:37:20.342Z,0.40
2018-11-07T03:39:49.899Z,0.50
2018-11-07T03:42:19.217Z,0.50
2018-11-07T03:44:48.565Z,0.30
2018-11-07T03:47:18.022Z,0.30
2018-11-07T03:49:47.183Z,0.30
2018-11-07T03:52:16.402Z,0.30
2018-11-07T03:54:45.936Z,0.30
2018-11-07T03:57:15.522Z,0.20
2018-11-07T03:59:44.547Z,0.30
2018-11-07T04:02:14.015Z,0.30
2018-11-07T04:04:43.375Z,0.20
2018-11-07T04:07:12.669Z,0.20
2018-11-07T04:09:41.875Z,0.30
2018-11-07T04:12:11.392Z,0.40
2018-11-07T04:14:40.688Z,0.50
2018-11-07T04:17:09.884Z,0.30
2018-11-07T04:19:39.132Z,0.40
2018-11-07T04:22:08.418Z,0.30
2018-11-07T04:24:38.670Z,0.30
2018-11-07T04:27:08.168Z,0.20
2018-11-07T04:29:37.587Z,0.30
2018-11-07T04:32:06.965Z,0.40
2018-11-07T04:34:36.371Z,0.40
2018-11-07T04:37:05.711Z,0.30
2018-11-07T04:39:34.951Z,0.30
2018-11-07T04:42:04.219Z,0.30
2018-11-07T04:44:33.534Z,0.20
2018-11-07T04:47:02.850Z,0.20
2018-11-07T04:49:32.176Z,0.00
2018-11-07T04:52:01.771Z,0.00
2018-11-07T04:54:31.225Z,0.00
2018-11-07T04:57:00.513Z,0.00
2018-11-07T04:59:29.876Z,0.00
2018-11-07T05:01:59.425Z,0.10
2018-11-07T05:04:28.778Z,0.10
2018-11-07T05:06:58.274Z,0.10
2018-11-07T05:09:27.676Z,0.60
2018-11-07T05:11:56.999Z,0.70
2018-11-07T05:14:26.381Z,0.90
2018-11-07T05:16:55.615Z,1.00
2018-11-07T05:19:24.870Z,0.70
2018-11-07T05:21:54.220Z,0.60
2018-11-07T05:24:23.655Z,0.50
2018-11-07T05:26:53.297Z,0.50
2018-11-07T05:29:22.512Z,0.30
2018-11-07T05:31:52.147Z,0.30
2018-11-07T05:34:21.343Z,0.30
2018-11-07T05:36:50.622Z,0.20
2018-11-07T05:39:20.052Z,0.20
2018-11-07T05:41:49.241Z,0.10
2018-11-07T05:44:18.233Z,0.10
2018-11-07T05:46:47.616Z,0.10
2018-11-07T05:49:17.133Z,0.10
2018-11-07T05:51:46.855Z,0.10
2018-11-07T05:54:16.428Z,0.10
2018-11-07T05:56:45.473Z,0.00
2018-11-07T05:59:14.712Z,0.10
2018-11-07T06:01:44.121Z,0.10
2018-11-07T06:04:13.184Z,0.00
2018-11-07T06:06:42.360Z,0.00
2018-11-07T06:09:11.430Z,0.20
2018-11-07T06:11:41.294Z,0.40
2018-11-07T06:14:10.726Z,0.40
2018-11-07T06:16:40.069Z,0.30
2018-11-07T06:19:09.401Z,0.30
2018-11-07T06:21:38.838Z,0.50
2018-11-07T06:24:08.615Z,0.40
2018-11-07T06:26:37.912Z,0.30
2018-11-07T06:29:07.241Z,0.40
2018-11-07T06:31:36.619Z,0.60
2018-11-07T06:34:06.082Z,0.60
2018-11-07T06:36:35.660Z,0.60
2018-11-07T06:39:06.642Z,0.70
2018-11-07T06:41:36.024Z,0.80
2018-11-07T06:44:05.566Z,0.90
2018-11-07T06:46:34.942Z,1.00
2018-11-07T06:49:04.162Z,0.90
2018-11-07T06:51:33.366Z,1.00
2018-11-07T06:54:02.841Z,1.10
2018-11-07T06:56:32.404Z,1.10
2018-11-07T06:59:01.564Z,1.20
2018-11-07T07:01:31.011Z,1.40
2018-11-07T07:04:00.157Z,1.50
2018-11-07T07:06:29.551Z,1.70
2018-11-07T07:08:59.089Z,2.00
2018-11-07T07:11:28.529Z,2.10
2018-11-07T07:13:57.864Z,2.20
2018-11-07T07:16:27.386Z,2.40
2018-11-07T07:18:56.474Z,2.60
2018-11-07T07:21:26.040Z,2.70
2018-11-07T07:23:55.145Z,2.90
2018-11-07T07:26:24.563Z,3.10
2018-11-07T07:28:53.795Z,3.30
2018-11-07T07:31:22.996Z,3.50
2018-11-07T07:33:52.298Z,3.70
2018-11-07T07:36:21.715Z,3.90
2018-11-07T07:38:51.068Z,4.10
2018-11-07T07:41:20.418Z,4.40
2018-11-07T07:43:49.446Z,4.50
2018-11-07T07:46:18.732Z,4.70
2018-11-07T07:48:47.987Z,4.90
2018-11-07T07:51:17.429Z,5.10
2018-11-07T07:53:46.618Z,5.30
2018-11-07T07:56:15.743Z,5.50
2018-11-07T07:58:44.987Z,6.00
2018-11-07T08:01:14.378Z,6.40
2018-11-07T08:03:43.842Z,7.00
2018-11-07T08:06:13.297Z,6.90
2018-11-07T08:08:43.162Z,6.90
2018-11-07T08:11:12.642Z,7.60
2018-11-07T08:13:42.078Z,7.90
2018-11-07T08:16:11.546Z,8.30
2018-11-07T08:18:41.032Z,8.50
2018-11-07T08:21:10.270Z,8.80
2018-11-07T08:23:39.785Z,9.10
2018-11-07T08:26:09.361Z,9.40
2018-11-07T08:28:38.995Z,9.50
2018-11-07T08:31:08.368Z,9.60
2018-11-07T08:33:37.488Z,9.60
2018-11-07T08:36:06.919Z,10.30
2018-11-07T08:38:36.865Z,10.40
2018-11-07T08:41:07.085Z,10.70
2018-11-07T08:43:36.570Z,11.20
2018-11-07T08:46:05.653Z,11.50
2018-11-07T08:48:34.875Z,11.60
2018-11-07T08:51:04.133Z,12.00
2018-11-07T08:53:33.538Z,12.20
2018-11-07T08:56:02.947Z,12.40
2018-11-07T08:58:32.298Z,12.70
2018-11-07T09:01:01.900Z,13.20
2018-11-07T09:03:31.452Z,14.00
2018-11-07T09:06:01.043Z,13.80
2018-11-07T09:08:30.441Z,14.50
2018-11-07T09:11:00.074Z,14.80
2018-11-07T09:13:29.618Z,14.50
2018-11-07T09:15:58.689Z,14.80
2018-11-07T09:18:28.237Z,15.20
2018-11-07T09:20:57.699Z,15.30
2018-11-07T09:23:27.067Z,14.50
2018-11-07T09:25:56.858Z,15.20
2018-11-07T09:28:26.381Z,15.30
2018-11-07T09:30:55.800Z,15.40
2018-11-07T09:33:25.120Z,16.10
2018-11-07T09:35:54.172Z,16.30
2018-11-07T09:38:23.512Z,16.70
2018-11-07T09:40:52.829Z,17.50
2018-11-07T09:43:21.996Z,18.20
2018-11-07T09:45:51.101Z,18.40
2018-11-07T09:48:20.207Z,18.70
2018-11-07T09:50:49.413Z,18.40
2018-11-07T09:53:18.630Z,19.10
2018-11-07T09:55:48.120Z,18.60
2018-11-07T09:58:17.521Z,18.40
2018-11-07T10:00:46.798Z,19.10
2018-11-07T10:03:16.157Z,18.90
2018-11-07T10:05:45.716Z,19.10
2018-11-07T10:08:15.100Z,19.40
2018-11-07T10:10:44.481Z,19.00
2018-11-07T10:13:14.004Z,18.90
2018-11-07T10:15:43.389Z,20.00
2018-11-07T10:18:12.960Z,19.70
2018-11-07T10:20:42.355Z,19.50
2018-11-07T10:23:11.903Z,20.20
2018-11-07T10:25:41.197Z,20.10
2018-11-07T10:28:10.890Z,20.70
2018-11-07T10:30:39.915Z,21.40
2018-11-07T10:33:09.159Z,21.20
2018-11-07T10:35:38.643Z,21.20
2018-11-07T10:38:07.934Z,20.40
2018-11-07T10:40:37.056Z,20.60
2018-11-07T10:43:06.545Z,21.00
2018-11-07T10:45:35.838Z,21.50
2018-11-07T10:48:05.258Z,21.60
2018-11-07T10:50:34.729Z,21.50
2018-11-07T10:53:03.900Z,22.20
2018-11-07T10:55:33.025Z,23.40
2018-11-07T10:58:02.328Z,22.00
2018-11-07T11:02:38.308Z,22.70
2018-11-07T11:05:07.461Z,24.40
2018-11-07T11:07:37.030Z,24.80
2018-11-07T11:10:06.191Z,25.20
2018-11-07T11:12:35.361Z,25.00
2018-11-07T11:15:04.700Z,24.50
2018-11-07T11:17:33.906Z,24.00
2018-11-07T11:20:03.439Z,24.40
2018-11-07T11:22:32.619Z,23.90
2018-11-07T11:25:01.899Z,23.80
2018-11-07T11:27:31.291Z,24.00
2018-11-07T11:30:00.707Z,24.30
2018-11-07T11:32:30.037Z,24.70
2018-11-07T11:34:59.503Z,24.70
2018-11-07T11:37:28.904Z,24.90
2018-11-07T11:39:58.184Z,24.30
2018-11-07T11:42:27.677Z,24.50
2018-11-07T11:44:56.857Z,24.90
2018-11-07T11:47:26.766Z,25.50
2018-11-07T11:49:56.335Z,25.70
2018-11-07T11:52:26.385Z,26.10
2018-11-07T11:54:55.948Z,25.50
2018-11-07T11:57:25.248Z,25.50
2018-11-07T11:59:54.875Z,27.50
2018-11-07T12:02:24.095Z,26.80
2018-11-07T12:04:53.904Z,24.00
2018-11-07T12:07:23.366Z,23.40
2018-11-07T12:09:53.044Z,23.30
2018-11-07T12:12:22.316Z,23.10
2018-11-07T12:14:51.591Z,23.10
2018-11-07T12:17:20.794Z,23.00
2018-11-07T12:19:49.969Z,25.40
2018-11-07T12:22:19.084Z,25.80
2018-11-07T12:24:48.600Z,26.10
2018-11-07T12:27:18.174Z,25.60
2018-11-07T12:29:47.780Z,22.70
2018-11-07T12:32:17.137Z,21.40
2018-11-07T12:34:46.232Z,20.70
2018-11-07T12:37:15.375Z,20.30
2018-11-07T12:39:44.715Z,22.10
2018-11-07T12:42:13.915Z,21.60
2018-11-07T12:44:43.304Z,21.30
2018-11-07T12:47:12.514Z,21.80
2018-11-07T12:49:41.843Z,21.70
2018-11-07T12:52:10.895Z,20.60
2018-11-07T12:54:40.392Z,20.10
2018-11-07T12:57:09.652Z,19.50
2018-11-07T12:59:38.874Z,19.50
2018-11-07T13:02:08.088Z,19.30
2018-11-07T13:04:37.654Z,19.00
2018-11-07T13:07:06.673Z,19.00
2018-11-07T13:09:35.888Z,18.90
2018-11-07T13:12:05.105Z,18.90
2018-11-07T13:14:34.145Z,18.80
2018-11-07T13:17:03.602Z,18.80
2018-11-07T13:19:32.988Z,18.80
2018-11-07T13:22:02.184Z,18.70
2018-11-07T13:24:31.590Z,18.60
2018-11-07T13:27:00.724Z,18.50
2018-11-07T13:29:30.035Z,18.50
2018-11-07T13:31:59.397Z,18.50
2018-11-07T13:34:28.990Z,18.30
2018-11-07T13:36:58.467Z,18.10
2018-11-07T13:39:27.695Z,18.20
2018-11-07T13:41:57.047Z,18.10
2018-11-07T13:44:26.455Z,18.00
2018-11-07T13:46:55.680Z,17.90
2018-11-07T13:49:25.914Z,17.90
2018-11-07T13:51:55.052Z,17.90
2018-11-07T13:54:24.411Z,17.80
2018-11-07T13:56:53.581Z,17.60
2018-11-07T13:59:23.270Z,17.50
2018-11-07T14:01:52.844Z,17.10
2018-11-07T14:04:22.325Z,17.00
2018-11-07T14:06:51.977Z,16.80
2018-11-07T14:09:21.430Z,16.70
2018-11-07T14:11:50.901Z,16.80
2018-11-07T14:14:20.194Z,17.00
2018-11-07T14:16:49.591Z,16.90
2018-11-07T14:19:18.900Z,16.80
2018-11-07T14:21:48.304Z,16.90
2018-11-07T14:24:17.713Z,16.90
2018-11-07T14:26:47.330Z,16.70
2018-11-07T14:29:16.818Z,16.80
2018-11-07T14:31:47.283Z,16.50
2018-11-07T14:34:16.736Z,16.30
2018-11-07T14:36:46.096Z,16.20
2018-11-07T14:39:15.397Z,16.00
2018-11-07T14:41:45.153Z,15.90
2018-11-07T14:44:14.138Z,15.50
2018-11-07T14:46:43.906Z,15.00
2018-11-07T14:49:13.473Z,14.60
2018-11-07T14:51:42.857Z,14.20
2018-11-07T14:54:12.388Z,13.80
2018-11-07T14:56:41.762Z,13.70
2018-11-07T14:59:11.028Z,13.70
2018-11-07T15:01:40.587Z,13.50
2018-11-07T15:04:10.053Z,13.00
2018-11-07T15:06:46.449Z,12.60
2018-11-07T15:09:15.849Z,12.50
2018-11-07T15:11:45.253Z,12.40
2018-11-07T15:14:14.464Z,12.00
2018-11-07T15:16:43.704Z,11.90
2018-11-07T15:19:13.320Z,11.50
2018-11-07T15:21:42.375Z,11.60
2018-11-07T15:24:11.594Z,11.60
2018-11-07T15:26:41.139Z,11.40
2018-11-07T15:29:10.651Z,11.30
2018-11-07T15:31:39.903Z,11.20
2018-11-07T15:34:09.529Z,11.30
2018-11-07T15:36:38.713Z,11.20
2018-11-07T15:39:09.272Z,10.90
2018-11-07T15:41:38.603Z,10.90
2018-11-07T15:44:08.165Z,11.00
2018-11-07T15:46:37.873Z,10.90
2018-11-07T15:49:07.354Z,10.70
2018-11-07T15:51:38.706Z,10.30
2018-11-07T15:54:08.796Z,10.20
2018-11-07T15:56:38.744Z,10.10
2018-11-07T15:59:09.967Z,10.00
2018-11-07T16:01:39.445Z,10.00
2018-11-07T16:04:08.653Z,9.80
2018-11-07T16:06:37.973Z,9.70
2018-11-07T16:09:09.453Z,9.50
2018-11-07T16:11:38.793Z,9.40
2018-11-07T16:14:08.236Z,9.10
2018-11-07T16:16:37.508Z,9.20
2018-11-07T16:19:06.873Z,9.10
2018-11-07T16:21:36.536Z,8.80
2018-11-07T16:24:06.836Z,8.80
2018-11-07T16:26:36.132Z,9.00
2018-11-07T16:29:05.632Z,9.00
2018-11-07T16:31:36.850Z,8.80
2018-11-07T16:34:06.899Z,8.80
2018-11-07T16:36:36.661Z,8.60
2018-11-07T16:39:08.384Z,8.50
2018-11-07T16:41:37.960Z,8.40
2018-11-07T16:44:07.752Z,8.30
2018-11-07T16:46:37.088Z,8.30
2018-11-07T16:49:06.229Z,8.20
2018-11-07T16:51:35.540Z,8.10
2018-11-07T16:54:05.736Z,8.00
2018-11-07T16:56:35.319Z,8.00
2018-11-07T16:59:05.893Z,8.10
2018-11-07T17:01:35.284Z,8.30
2018-11-07T17:04:05.540Z,8.30
2018-11-07T17:06:34.868Z,8.00
2018-11-07T17:09:04.621Z,8.00
2018-11-07T17:11:34.054Z,8.10
2018-11-07T17:14:04.021Z,8.00
2018-11-07T17:16:33.366Z,8.10
2018-11-07T17:19:02.874Z,8.10
2018-11-07T17:21:32.601Z,8.30
2018-11-07T17:24:02.027Z,8.20
2018-11-07T17:26:31.287Z,8.10
2018-11-07T17:29:01.007Z,8.00
2018-11-07T17:31:30.575Z,8.00
2018-11-07T17:34:00.024Z,7.90
2018-11-07T17:36:29.740Z,7.90
2018-11-07T17:38:59.155Z,8.10
2018-11-07T17:41:28.610Z,7.90
2018-11-07T17:43:57.717Z,7.70
2018-11-07T17:46:27.124Z,7.60
2018-11-07T17:48:56.878Z,7.60
2018-11-07T17:51:26.656Z,7.50
2018-11-07T17:53:55.764Z,7.50
2018-11-07T17:56:25.328Z,7.50
2018-11-07T17:58:54.910Z,7.40
2018-11-07T18:01:24.825Z,7.20
2018-11-07T18:03:54.509Z,7.20
2018-11-07T18:06:24.306Z,7.20
2018-11-07T18:08:53.971Z,7.10
2018-11-07T18:11:23.597Z,7.00
2018-11-07T18:13:53.024Z,6.90
2018-11-07T18:16:22.565Z,6.80
2018-11-07T18:18:52.195Z,6.80
2018-11-07T18:21:21.925Z,6.70
2018-11-07T18:23:50.999Z,6.70
2018-11-07T18:26:21.374Z,6.60
2018-11-07T18:28:54.113Z,6.60
2018-11-07T18:31:24.168Z,6.60
2018-11-07T18:33:53.965Z,6.40
2018-11-07T18:36:23.485Z,6.30
2018-11-07T18:38:54.342Z,6.40
2018-11-07T18:41:24.185Z,6.30
2018-11-07T18:43:54.135Z,6.30
2018-11-07T18:46:23.600Z,6.10
2018-11-07T18:48:52.913Z,6.20
2018-11-07T18:51:22.186Z,6.10
2018-11-07T18:53:52.385Z,6.00
2018-11-07T18:56:21.852Z,5.90
2018-11-07T18:58:51.122Z,5.80
2018-11-07T19:01:21.045Z,5.90
2018-11-07T19:03:50.553Z,5.70
2018-11-07T19:06:20.734Z,5.70
2018-11-07T19:08:49.885Z,5.70
2018-11-07T19:11:19.645Z,5.70
2018-11-07T19:13:49.401Z,5.60
2018-11-07T19:16:20.302Z,5.60
2018-11-07T19:18:49.886Z,5.50
2018-11-07T19:21:20.317Z,5.50
2018-11-07T19:23:49.559Z,5.50
2018-11-07T19:26:19.236Z,5.40
2018-11-07T19:28:51.073Z,5.40
2018-11-07T19:31:20.734Z,5.30
2018-11-07T19:33:50.312Z,5.40
2018-11-07T19:36:19.741Z,5.30
2018-11-07T19:38:49.049Z,5.30
2018-11-07T19:41:19.240Z,5.20
2018-11-07T19:43:48.798Z,5.20
2018-11-07T19:46:19.264Z,5.20
2018-11-07T19:48:49.003Z,5.10
2018-11-07T19:51:18.328Z,5.10
2018-11-07T19:53:47.884Z,5.10
2018-11-07T19:56:17.596Z,5.10
2018-11-07T19:58:47.111Z,5.00
2018-11-07T20:01:16.638Z,5.00
2018-11-07T20:03:46.219Z,4.90
2018-11-07T20:06:15.931Z,4.80
2018-11-07T20:08:45.521Z,4.80
2018-11-07T20:11:14.820Z,4.80
2018-11-07T20:13:44.382Z,4.70
2018-11-07T20:16:13.544Z,4.70
2018-11-07T20:18:43.009Z,4.70
2018-11-07T20:21:12.560Z,4.80
2018-11-07T20:23:41.684Z,4.70
2018-11-07T20:26:11.312Z,4.50
2018-11-07T20:28:40.999Z,4.50
2018-11-07T20:31:10.694Z,4.60
2018-11-07T20:33:40.299Z,4.70
2018-11-07T20:36:09.956Z,4.50
2018-11-07T20:38:39.045Z,4.50
2018-11-07T20:41:08.273Z,4.50
2018-11-07T20:43:37.854Z,4.50
2018-11-07T20:46:07.452Z,4.50
2018-11-07T20:48:37.277Z,4.30
2018-11-07T20:51:06.968Z,4.40
2018-11-07T20:53:36.319Z,4.40
2018-11-07T20:56:05.563Z,4.60
2018-11-07T20:58:34.804Z,4.60
2018-11-07T21:01:04.024Z,4.50
2018-11-07T21:03:33.531Z,4.50
2018-11-07T21:06:02.554Z,4.40
2018-11-07T21:08:31.895Z,4.40
2018-11-07T21:11:01.276Z,4.40
2018-11-07T21:13:30.545Z,4.40
2018-11-07T21:16:05.120Z,4.30
2018-11-07T21:18:34.266Z,4.40
2018-11-07T21:21:03.617Z,4.40
2018-11-07T21:23:33.085Z,4.40
2018-11-07T21:26:02.452Z,4.30
2018-11-07T21:28:31.865Z,4.30
2018-11-07T21:31:01.299Z,4.10
2018-11-07T21:33:30.803Z,4.10
2018-11-07T21:36:00.120Z,4.00
2018-11-07T21:38:29.369Z,3.90
2018-11-07T21:40:58.652Z,3.90
2018-11-07T21:43:27.770Z,3.80
2018-11-07T21:45:57.153Z,3.80
2018-11-07T21:48:26.670Z,3.80
2018-11-07T21:50:55.984Z,3.80
2018-11-07T21:53:25.204Z,3.70
2018-11-07T21:55:54.815Z,3.80
2018-11-07T21:58:24.013Z,3.80
2018-11-07T22:00:53.465Z,3.90
2018-11-07T22:03:22.928Z,3.70
2018-11-07T22:05:52.185Z,3.80
2018-11-07T22:08:21.553Z,3.80
2018-11-07T22:10:50.814Z,3.80
2018-11-07T22:13:20.392Z,3.80
2018-11-07T22:15:49.708Z,3.80
2018-11-07T22:18:19.077Z,3.70
2018-11-07T22:20:48.270Z,3.70
2018-11-07T22:23:17.607Z,3.70
2018-11-07T22:25:46.787Z,3.70
2018-11-07T22:28:16.184Z,3.70
2018-11-07T22:30:45.805Z,3.70
2018-11-07T22:33:15.002Z,3.60
2018-11-07T22:35:44.363Z,3.50
2018-11-07T22:38:13.613Z,3.50
2018-11-07T22:40:43.425Z,3.40
2018-11-07T22:43:12.728Z,3.40
2018-11-07T22:45:42.037Z,3.50
2018-11-07T22:48:11.665Z,3.50
2018-11-07T22:50:40.928Z,3.60
2018-11-07T22:53:10.173Z,3.50
2018-11-07T22:55:39.228Z,3.40
2018-11-07T22:58:08.865Z,3.20
2018-11-07T23:00:43.892Z,3.30
2018-11-07T23:03:13.294Z,3.30
2018-11-07T23:05:43.074Z,3.30
2018-11-07T23:08:12.482Z,3.20
2018-11-07T23:10:41.641Z,3.20
2018-11-07T23:13:10.937Z,3.20
2018-11-07T23:15:46.392Z,3.10
2018-11-07T23:18:15.916Z,3.10
2018-11-07T23:20:45.141Z,3.20
2018-11-07T23:23:14.883Z,3.20
2018-11-07T23:25:44.581Z,3.30
2018-11-07T23:28:13.801Z,3.20
2018-11-07T23:30:43.153Z,3.30
2018-11-07T23:33:12.466Z,3.20
2018-11-07T23:35:41.653Z,3.20
2018-11-07T23:38:10.827Z,3.30
2018-11-07T23:40:40.009Z,3.20
2018-11-07T23:43:09.426Z,3.10
2018-11-07T23:45:38.577Z,3.10
2018-11-07T23:48:08.221Z,3.10
2018-11-07T23:50:37.575Z,3.20
2018-11-07T23:53:07.029Z,3.10
2018-11-07T23:55:36.523Z,3.20
2018-11-07T23:58:05.763Z,3.20
